Time;durP1;ratioP1;P1;durP2;ratioP2;P2;SDS_P1;SDS_P2;PMS_P1;PMS_P2;Temp;Humidity;BMP_temperature;BMP_pressure;BME280_temperature;BME280_humidity;BME280_pressure;Samples;Min_cycle;Max_cycle;Signal;HPM_P1;HPM_P2
2023/01/06 00:00:18;;;;;;;38.53;9.38;;;9.70;99.30;;;;;;5051638;28;20090;-74
2023/01/06 00:02:45;;;;;;;26.75;7.88;;;9.70;99.20;;;;;;5034956;28;20073;-76
2023/01/06 00:05:12;;;;;;;40.80;9.05;;;9.70;99.10;;;;;;5017935;28;20533;-74
2023/01/06 00:07:38;;;;;;;29.42;8.40;;;9.70;99.10;;;;;;5051375;28;20033;-75
2023/01/06 00:10:05;;;;;;;38.28;8.65;;;9.70;99.10;;;;;;5051542;28;20109;-74
2023/01/06 00:12:30;;;;;;;35.92;8.50;;;9.70;99.00;;;;;;5018542;28;20063;-74
2023/01/06 00:14:57;;;;;;;32.45;8.20;;;9.80;99.00;;;;;;5051501;28;20119;-73
2023/01/06 00:17:23;;;;;;;32.72;8.25;;;9.80;98.90;;;;;;5051475;28;20123;-73
2023/01/06 00:19:48;;;;;;;33.92;7.22;;;9.80;98.80;;;;;;5051707;28;20473;-75
2023/01/06 00:22:14;;;;;;;20.45;7.32;;;9.90;98.70;;;;;;5050443;28;20110;-73
2023/01/06 00:24:40;;;;;;;25.92;5.97;;;9.90;98.60;;;;;;5034772;28;20485;-74
2023/01/06 00:27:06;;;;;;;19.35;5.63;;;10.00;98.50;;;;;;5051571;28;20049;-76
2023/01/06 00:29:32;;;;;;;14.77;4.00;;;10.00;98.30;;;;;;5018251;28;20044;-75
2023/01/06 00:31:59;;;;;;;22.27;4.47;;;10.00;98.20;;;;;;5051296;28;20044;-74
2023/01/06 00:34:25;;;;;;;19.77;5.25;;;10.00;97.90;;;;;;5051331;28;20053;-73
2023/01/06 00:36:51;;;;;;;22.60;5.78;;;10.10;97.80;;;;;;5051254;28;20033;-76
2023/01/06 00:39:17;;;;;;;16.67;3.63;;;10.10;97.60;;;;;;5050063;28;20118;-73
2023/01/06 00:44:27;;;;;;;17.05;4.43;;;10.10;97.40;;;;;;5051320;28;20099;-75
2023/01/06 00:46:52;;;;;;;17.67;4.30;;;10.10;97.20;;;;;;5051192;28;20045;-72
2023/01/06 00:49:18;;;;;;;21.67;5.18;;;10.10;97.20;;;;;;5050891;28;20132;-73
2023/01/06 00:51:44;;;;;;;16.30;4.15;;;10.10;96.80;;;;;;5051115;28;20053;-73
2023/01/06 00:54:12;;;;;;;18.42;4.43;;;10.10;97.10;;;;;;5034601;28;20037;-75
2023/01/06 00:56:45;;;;;;;14.98;4.00;;;10.10;97.00;;;;;;5049847;28;20477;-74
2023/01/06 00:59:15;;;;;;;11.02;3.13;;;10.10;97.00;;;;;;5051476;28;20037;-76
2023/01/06 01:01:42;;;;;;;13.00;4.05;;;10.10;96.90;;;;;;5051872;28;20076;-75
2023/01/06 01:04:09;;;;;;;16.45;4.45;;;10.10;96.80;;;;;;5053940;28;20404;-72
2023/01/06 01:06:35;;;;;;;8.82;3.30;;;10.10;96.60;;;;;;5037016;28;20071;-74
2023/01/06 01:09:03;;;;;;;15.23;3.67;;;10.10;96.70;;;;;;5036928;28;20045;-75
2023/01/06 01:14:15;;;;;;;12.35;3.05;;;10.10;96.50;;;;;;5053554;28;20485;-75
2023/01/06 01:16:41;;;;;;;16.80;4.28;;;10.10;96.20;;;;;;5053772;28;20084;-73
2023/01/06 01:19:07;;;;;;;25.60;4.05;;;10.10;96.10;;;;;;5037587;28;20091;-75
2023/01/06 01:21:33;;;;;;;18.67;4.18;;;10.10;96.00;;;;;;5054528;28;20041;-74
2023/01/06 01:23:59;;;;;;;14.50;4.95;;;10.10;96.20;;;;;;5054335;28;20048;-76
2023/01/06 01:26:25;;;;;;;12.48;3.63;;;10.10;96.20;;;;;;5054373;28;20037;-76
2023/01/06 01:28:51;;;;;;;16.17;3.55;;;10.10;96.10;;;;;;5036389;28;20052;-72
2023/01/06 01:31:16;;;;;;;20.10;5.20;;;10.10;95.80;;;;;;5053977;28;20041;-74
2023/01/06 01:33:42;;;;;;;11.75;2.72;;;10.10;95.90;;;;;;5053031;28;20037;-76
2023/01/06 01:36:11;;;;;;;12.88;3.70;;;10.10;95.80;;;;;;5054424;28;20037;-74
2023/01/06 01:38:37;;;;;;;16.88;3.40;;;10.10;95.90;;;;;;5054117;28;20045;-75
2023/01/06 01:41:03;;;;;;;13.52;4.43;;;10.10;95.90;;;;;;5054353;28;20048;-74
2023/01/06 01:43:51;;;;;;;11.80;3.28;;;10.10;95.90;;;;;;5053926;28;20078;-72
2023/01/06 01:46:39;;;;;;;17.92;4.28;;;10.10;95.90;;;;;;5053038;28;20485;-73
2023/01/06 01:49:19;;;;;;;17.25;4.22;;;10.00;96.00;;;;;;5053920;28;20068;-74
2023/01/06 01:51:48;;;;;;;17.48;3.55;;;10.00;96.00;;;;;;5053837;28;20092;-72
2023/01/06 01:54:18;;;;;;;15.27;3.72;;;10.00;96.10;;;;;;5053879;28;20534;-74
2023/01/06 01:56:47;;;;;;;15.05;4.90;;;10.00;96.10;;;;;;5054106;28;20045;-73
2023/01/06 01:59:17;;;;;;;34.72;16.67;;;10.00;96.00;;;;;;5053967;28;20114;-73
2023/01/06 02:01:43;;;;;;;14.02;3.50;;;9.90;96.10;;;;;;5052628;28;20562;-72
2023/01/06 02:04:09;;;;;;;14.70;6.50;;;9.90;95.90;;;;;;5053627;28;20106;-72
2023/01/06 02:06:35;;;;;;;10.18;3.33;;;9.90;95.90;;;;;;5053728;28;20053;-74
2023/01/06 02:09:15;;;;;;;14.85;6.45;;;9.90;95.80;;;;;;5053615;28;20037;-74
2023/01/06 02:11:42;;;;;;;20.02;5.30;;;9.90;95.90;;;;;;5053833;28;20080;-73
2023/01/06 02:14:17;;;;;;;19.70;8.98;;;10.00;95.70;;;;;;5052828;28;20040;-75
2023/01/06 02:16:54;;;;;;;18.40;7.53;;;10.00;95.70;;;;;;5053450;28;20037;-72
2023/01/06 02:19:45;;;;;;;14.60;4.45;;;10.00;95.50;;;;;;5052119;28;20037;-75
2023/01/06 02:22:44;;;;;;;23.17;10.25;;;10.00;95.50;;;;;;5053318;28;20127;-73
2023/01/06 02:25:22;;;;;;;10.13;2.63;;;10.00;95.50;;;;;;5053242;28;20497;-73
2023/01/06 02:28:09;;;;;;;13.15;4.25;;;10.00;95.30;;;;;;5053271;28;20061;-72
2023/01/06 02:31:09;;;;;;;14.45;2.90;;;10.00;95.30;;;;;;5053250;28;20084;-72
2023/01/06 02:33:45;;;;;;;8.57;3.97;;;10.10;95.40;;;;;;5053091;28;20037;-75
2023/01/06 02:36:32;;;;;;;17.48;5.03;;;10.10;95.30;;;;;;5052008;28;20047;-74
2023/01/06 02:39:13;;;;;;;9.13;3.17;;;10.10;95.20;;;;;;5053039;28;20055;-73
2023/01/06 02:41:51;;;;;;;11.60;2.70;;;10.00;95.20;;;;;;5053318;28;20508;-75
2023/01/06 02:44:31;;;;;;;7.93;2.80;;;10.10;95.10;;;;;;5052982;28;20047;-75
2023/01/06 02:47:14;;;;;;;8.85;2.42;;;10.10;94.90;;;;;;5052922;28;20497;-74
2023/01/06 02:50:01;;;;;;;14.77;7.15;;;10.10;94.80;;;;;;5052733;28;20066;-74
2023/01/06 02:52:50;;;;;;;12.63;7.10;;;10.10;94.70;;;;;;5051818;28;20465;-73
2023/01/06 02:55:34;;;;;;;19.10;8.40;;;10.10;94.90;;;;;;5069426;28;20106;-75
2023/01/06 02:58:14;;;;;;;21.02;12.77;;;10.10;94.60;;;;;;5036416;28;20059;-73
2023/01/06 03:00:46;;;;;;;11.45;4.10;;;10.00;94.90;;;;;;5052534;28;20044;-73
2023/01/06 03:03:16;;;;;;;11.70;6.85;;;10.00;94.70;;;;;;5052782;28;20499;-77
2023/01/06 03:05:46;;;;;;;21.73;12.98;;;10.00;94.90;;;;;;5052520;28;20039;-73
2023/01/06 03:08:17;;;;;;;23.35;13.68;;;10.00;94.90;;;;;;5051399;28;20040;-73
2023/01/06 03:10:46;;;;;;;12.55;6.60;;;9.90;94.90;;;;;;5052482;28;20044;-75
2023/01/06 03:13:33;;;;;;;14.27;6.82;;;9.90;95.10;;;;;;5052305;28;20040;-76
2023/01/06 03:15:59;;;;;;;27.40;13.30;;;9.90;95.10;;;;;;5052351;28;20082;-73
2023/01/06 03:18:26;;;;;;;11.23;5.43;;;10.00;95.10;;;;;;5052255;28;20048;-77
2023/01/06 03:20:56;;;;;;;15.90;9.43;;;9.90;95.20;;;;;;5052541;28;20102;-74
2023/01/06 03:23:22;;;;;;;24.25;12.35;;;9.90;95.40;;;;;;5051145;28;20071;-74
2023/01/06 03:25:48;;;;;;;28.33;16.33;;;9.90;95.50;;;;;;5034707;28;20101;-73
2023/01/06 03:28:14;;;;;;;19.27;9.70;;;10.00;95.30;;;;;;5052075;28;20049;-74
2023/01/06 03:30:52;;;;;;;17.05;10.80;;;9.90;95.40;;;;;;5035783;28;20040;-76
2023/01/06 03:33:22;;;;;;;15.60;8.85;;;9.90;95.60;;;;;;5035337;28;20056;-74
2023/01/06 03:35:57;;;;;;;12.23;9.88;;;9.90;95.60;;;;;;5052296;28;20060;-74
2023/01/06 03:38:37;;;;;;;14.48;11.70;;;9.80;95.60;;;;;;5034605;28;20163;-75
2023/01/06 03:41:12;;;;;;;14.27;9.75;;;9.80;95.60;;;;;;5052214;28;20162;-73
2023/01/06 03:43:57;;;;;;;17.08;13.48;;;9.80;95.90;;;;;;5035197;28;20041;-75
2023/01/06 03:46:28;;;;;;;18.98;11.40;;;9.80;96.10;;;;;;5035271;28;20439;-73
2023/01/06 03:49:07;;;;;;;13.40;9.95;;;9.70;96.00;;;;;;5051881;28;20135;-71
2023/01/06 03:51:42;;;;;;;12.38;10.02;;;9.80;96.00;;;;;;5051662;28;20056;-71
2023/01/06 03:54:16;;;;;;;13.75;10.60;;;9.70;96.10;;;;;;5050806;28;20040;-73
2023/01/06 03:56:53;;;;;;;16.90;12.85;;;9.70;96.20;;;;;;5035156;28;20033;-76
2023/01/06 03:59:25;;;;;;;19.45;15.57;;;9.70;96.10;;;;;;5051930;28;20102;-74
2023/01/06 04:01:51;;;;;;;17.13;12.55;;;9.80;96.00;;;;;;5051594;28;20044;-75
2023/01/06 04:04:17;;;;;;;17.60;10.68;;;9.70;95.90;;;;;;5035080;28;20048;-72
2023/01/06 04:06:43;;;;;;;13.52;9.57;;;9.80;95.90;;;;;;5035274;28;20037;-73
2023/01/06 04:09:09;;;;;;;15.32;9.35;;;9.80;95.70;;;;;;5051591;28;20041;-73
2023/01/06 04:14:19;;;;;;;15.20;9.23;;;9.80;95.50;;;;;;5051515;28;20051;-75
2023/01/06 04:16:45;;;;;;;13.88;10.13;;;9.80;95.40;;;;;;5051720;28;20128;-72
2023/01/06 04:19:11;;;;;;;12.45;7.22;;;9.90;95.60;;;;;;5051480;28;20503;-72
2023/01/06 04:21:36;;;;;;;13.70;6.68;;;9.90;95.10;;;;;;5018468;28;20045;-72
2023/01/06 04:24:02;;;;;;;8.27;6.07;;;9.90;95.10;;;;;;5051614;28;20033;-77
2023/01/06 04:26:28;;;;;;;6.82;6.07;;;9.90;94.90;;;;;;5051658;28;20036;-74
2023/01/06 04:28:54;;;;;;;8.50;5.93;;;9.90;94.90;;;;;;5034086;28;20045;-72
2023/01/06 04:31:19;;;;;;;9.32;5.90;;;9.90;94.60;;;;;;5051335;28;20493;-73
2023/01/06 04:33:45;;;;;;;9.13;5.65;;;10.00;94.70;;;;;;5034956;28;20041;-73
2023/01/06 04:36:11;;;;;;;14.57;5.63;;;9.90;94.50;;;;;;5051399;28;20481;-74
2023/01/06 04:38:36;;;;;;;10.43;4.40;;;9.90;94.80;;;;;;5055301;28;20044;-75
2023/01/06 04:41:02;;;;;;;7.47;4.72;;;10.00;94.20;;;;;;5038957;28;20078;-73
2023/01/06 04:43:28;;;;;;;7.03;5.22;;;9.90;94.50;;;;;;5055159;28;20406;-74
2023/01/06 04:45:57;;;;;;;6.20;4.80;;;10.00;94.50;;;;;;5055483;28;20049;-74
2023/01/06 04:48:23;;;;;;;7.78;4.88;;;10.00;94.20;;;;;;5054471;28;20124;-75
2023/01/06 04:50:49;;;;;;;5.43;4.05;;;10.00;94.20;;;;;;5054898;28;20136;-75
2023/01/06 04:53:14;;;;;;;8.80;4.90;;;9.90;94.20;;;;;;5038359;28;20103;-74
2023/01/06 04:55:41;;;;;;;5.32;4.40;;;10.00;94.20;;;;;;5055001;28;20048;-73
2023/01/06 04:58:07;;;;;;;8.57;4.30;;;10.00;94.10;;;;;;5054953;28;20146;-74
2023/01/06 05:00:33;;;;;;;11.95;6.38;;;9.90;94.10;;;;;;5038610;28;20392;-74
2023/01/06 05:02:59;;;;;;;10.75;5.78;;;9.90;94.30;;;;;;5053679;28;20136;-72
2023/01/06 05:05:24;;;;;;;8.93;5.38;;;9.90;94.30;;;;;;5038235;28;20106;-76
2023/01/06 05:07:53;;;;;;;6.13;4.70;;;9.90;94.30;;;;;;5052201;28;20128;-73
2023/01/06 05:10:19;;;;;;;7.88;5.10;;;9.80;94.30;;;;;;5071378;28;20516;-75
2023/01/06 05:12:45;;;;;;;7.13;4.20;;;9.90;94.30;;;;;;5038320;28;20041;-74
2023/01/06 05:15:10;;;;;;;9.90;5.82;;;9.90;94.50;;;;;;5054656;28;20037;-76
2023/01/06 05:17:36;;;;;;;5.70;3.83;;;9.90;94.40;;;;;;5054598;28;20048;-73
2023/01/06 05:20:03;;;;;;;8.68;4.25;;;9.90;94.70;;;;;;5054566;28;20435;-74
2023/01/06 05:22:28;;;;;;;9.13;5.40;;;9.80;95.10;;;;;;5054363;28;20087;-73
2023/01/06 05:24:54;;;;;;;6.28;4.50;;;9.80;95.10;;;;;;5053202;28;20075;-72
2023/01/06 05:27:19;;;;;;;6.72;4.38;;;9.70;95.50;;;;;;5038109;28;20048;-74
2023/01/06 05:29:46;;;;;;;8.80;5.13;;;9.70;95.80;;;;;;5054315;28;20566;-73
2023/01/06 05:32:11;;;;;;;5.88;4.40;;;9.60;96.10;;;;;;5054283;28;20047;-75
2023/01/06 05:34:37;;;;;;;6.13;4.47;;;9.60;95.90;;;;;;5037730;28;20421;-74
2023/01/06 05:37:03;;;;;;;8.32;5.15;;;9.60;96.10;;;;;;5054145;28;20083;-75
2023/01/06 05:39:28;;;;;;;7.18;4.80;;;9.60;96.00;;;;;;5054208;28;20049;-76
2023/01/06 05:41:54;;;;;;;7.25;4.95;;;9.50;97.00;;;;;;5036561;28;20045;-74
2023/01/06 05:44:20;;;;;;;8.32;4.50;;;9.50;97.10;;;;;;5054095;28;20546;-77
2023/01/06 05:46:45;;;;;;;9.40;4.78;;;9.50;97.00;;;;;;5037430;28;20048;-72
2023/01/06 05:49:11;;;;;;;8.85;4.60;;;9.50;97.00;;;;;;5036541;28;20101;-77
2023/01/06 05:51:37;;;;;;;8.73;4.20;;;9.40;97.30;;;;;;5053769;28;20063;-74
2023/01/06 05:54:07;;;;;;;8.95;6.43;;;9.40;97.00;;;;;;5054156;28;20055;-76
2023/01/06 05:56:33;;;;;;;7.97;5.22;;;9.40;97.10;;;;;;5053960;28;20615;-73
2023/01/06 05:58:59;;;;;;;9.43;4.80;;;9.40;97.30;;;;;;5052634;28;20123;-73
2023/01/06 06:01:27;;;;;;;6.10;4.57;;;9.50;97.00;;;;;;5054054;28;20102;-76
2023/01/06 06:03:53;;;;;;;7.72;4.95;;;9.50;97.40;;;;;;5053651;28;20068;-74
2023/01/06 06:06:21;;;;;;;7.93;6.10;;;9.50;97.10;;;;;;5037120;28;20103;-75
2023/01/06 06:08:47;;;;;;;9.23;5.60;;;9.50;97.30;;;;;;5053565;28;20551;-77
2023/01/06 06:11:15;;;;;;;6.80;5.13;;;9.50;97.20;;;;;;5037029;28;20074;-74
2023/01/06 06:13:54;;;;;;;8.23;5.68;;;9.60;97.10;;;;;;5052316;28;20052;-73
2023/01/06 06:16:25;;;;;;;9.82;6.72;;;9.50;97.30;;;;;;5036904;28;20120;-75
2023/01/06 06:18:54;;;;;;;7.88;6.00;;;9.60;97.50;;;;;;5053802;28;20044;-73
2023/01/06 06:21:22;;;;;;;9.80;6.05;;;9.60;97.40;;;;;;5036853;28;20041;-72
2023/01/06 06:23:48;;;;;;;9.05;5.43;;;9.60;97.80;;;;;;5053308;28;20134;-75
2023/01/06 06:26:14;;;;;;;7.72;6.50;;;9.60;97.30;;;;;;5053393;28;20065;-76
2023/01/06 06:28:41;;;;;;;11.13;6.25;;;9.70;97.00;;;;;;5036820;28;20048;-73
2023/01/06 06:31:19;;;;;;;9.25;6.45;;;9.70;97.20;;;;;;5036988;28;20389;-76
2023/01/06 06:33:48;;;;;;;8.85;6.15;;;9.70;97.20;;;;;;5051919;28;20124;-76
2023/01/06 06:36:16;;;;;;;7.03;5.88;;;9.60;97.50;;;;;;5053591;28;20047;-73
2023/01/06 06:38:43;;;;;;;9.32;6.28;;;9.70;97.60;;;;;;5053049;28;20037;-75
2023/01/06 06:41:09;;;;;;;11.55;4.75;;;9.70;97.50;;;;;;5036479;28;20037;-74
2023/01/06 06:43:35;;;;;;;9.68;5.47;;;9.70;97.50;;;;;;5052826;28;20103;-75
2023/01/06 06:46:01;;;;;;;5.40;4.90;;;9.80;97.40;;;;;;5053010;28;20132;-72
2023/01/06 06:48:28;;;;;;;9.30;6.20;;;9.80;97.60;;;;;;5051692;28;20124;-74
2023/01/06 06:51:08;;;;;;;7.28;4.93;;;9.70;97.60;;;;;;5036191;28;20053;-74
2023/01/06 06:53:34;;;;;;;9.18;4.90;;;9.80;97.60;;;;;;5036106;28;20492;-76
2023/01/06 06:56:01;;;;;;;7.60;3.97;;;9.80;97.60;;;;;;5052761;28;20520;-74
2023/01/06 06:58:27;;;;;;;10.55;3.83;;;9.80;97.40;;;;;;5052921;28;20047;-76
2023/01/06 07:00:52;;;;;;;7.30;3.45;;;9.90;97.40;;;;;;5052560;28;20464;-75
2023/01/06 07:03:19;;;;;;;11.63;2.53;;;10.00;97.30;;;;;;5052529;28;20067;-73
2023/01/06 07:05:46;;;;;;;8.85;2.50;;;10.00;97.00;;;;;;5035186;28;20140;-74
2023/01/06 07:08:12;;;;;;;8.30;2.38;;;10.00;96.70;;;;;;5035897;28;20045;-72
2023/01/06 07:10:38;;;;;;;13.27;3.00;;;10.00;96.00;;;;;;5052398;28;20040;-73
2023/01/06 07:13:04;;;;;;;13.32;3.10;;;9.90;95.50;;;;;;5052393;28;20036;-76
2023/01/06 07:15:30;;;;;;;15.98;2.88;;;9.80;95.10;;;;;;5052393;28;20040;-75
2023/01/06 07:18:00;;;;;;;13.50;3.55;;;9.70;95.00;;;;;;5052345;28;20119;-73
2023/01/06 07:20:26;;;;;;;10.15;2.33;;;9.60;94.80;;;;;;5051251;28;20059;-72
2023/01/06 07:22:51;;;;;;;6.55;2.13;;;9.40;94.70;;;;;;5035849;28;20049;-76
2023/01/06 07:25:17;;;;;;;5.75;1.73;;;9.30;94.80;;;;;;5035590;28;20503;-74
2023/01/06 07:27:43;;;;;;;11.38;2.03;;;9.10;94.80;;;;;;5035633;28;20068;-71
2023/01/06 07:30:09;;;;;;;5.03;1.30;;;9.10;94.60;;;;;;5035459;28;20452;-73
2023/01/06 07:32:35;;;;;;;6.00;1.10;;;8.90;94.40;;;;;;5019335;28;20033;-73
2023/01/06 07:35:00;;;;;;;10.15;2.33;;;8.80;94.60;;;;;;5052014;28;20556;-71
2023/01/06 07:37:26;;;;;;;6.72;1.30;;;8.70;94.50;;;;;;5034756;28;20041;-74
2023/01/06 07:39:52;;;;;;;8.85;2.10;;;8.60;94.60;;;;;;5051807;28;20037;-75
2023/01/06 07:42:17;;;;;;;7.15;1.45;;;8.50;94.50;;;;;;5035201;28;20444;-74
2023/01/06 07:44:43;;;;;;;8.23;2.10;;;8.50;94.60;;;;;;5051719;28;20127;-76
2023/01/06 07:47:09;;;;;;;8.52;2.10;;;8.40;94.30;;;;;;5051500;28;20041;-74
2023/01/06 07:49:35;;;;;;;8.00;1.90;;;8.30;94.10;;;;;;5051332;28;20052;-74
2023/01/06 07:52:01;;;;;;;12.18;1.50;;;8.20;94.20;;;;;;5035233;28;20482;-76
2023/01/06 07:54:26;;;;;;;6.35;2.00;;;8.10;94.10;;;;;;5033942;28;20434;-78
2023/01/06 07:56:52;;;;;;;4.82;1.45;;;8.00;94.20;;;;;;5035187;28;20037;-71
2023/01/06 07:59:18;;;;;;;11.43;1.90;;;8.00;94.40;;;;;;5035142;28;20045;-73
2023/01/06 08:01:43;;;;;;;11.57;2.22;;;7.80;94.20;;;;;;5051927;28;20080;-76
2023/01/06 08:04:09;;;;;;;10.55;1.80;;;7.70;94.30;;;;;;5051846;28;20485;-75
2023/01/06 08:06:38;;;;;;;16.00;2.30;;;7.70;94.50;;;;;;5051912;28;20503;-73
2023/01/06 08:09:04;;;;;;;12.18;1.92;;;7.60;94.80;;;;;;5051626;28;20474;-74
2023/01/06 08:11:30;;;;;;;13.95;3.70;;;7.60;94.80;;;;;;5049539;28;20107;-73
2023/01/06 08:13:56;;;;;;;13.88;2.60;;;7.60;95.00;;;;;;5034892;28;20041;-73
2023/01/06 08:16:21;;;;;;;14.13;2.42;;;7.50;94.90;;;;;;5051549;28;20045;-74
2023/01/06 08:18:47;;;;;;;14.07;2.00;;;7.40;95.00;;;;;;5034902;28;20040;-74
2023/01/06 08:21:13;;;;;;;12.65;3.38;;;7.50;95.20;;;;;;5051475;28;20041;-74
2023/01/06 08:23:38;;;;;;;16.13;2.58;;;7.40;95.30;;;;;;5018349;28;20041;-73
2023/01/06 08:26:09;;;;;;;13.85;2.83;;;7.40;95.40;;;;;;5051702;28;20048;-72
2023/01/06 08:28:35;;;;;;;12.93;2.65;;;7.40;95.30;;;;;;5050151;28;20532;-72
2023/01/06 08:31:02;;;;;;;17.17;3.70;;;7.30;95.60;;;;;;5051375;28;20151;-73
2023/01/06 08:33:28;;;;;;;12.73;2.72;;;7.30;95.50;;;;;;5034959;28;20053;-73
2023/01/06 08:36:05;;;;;;;12.63;2.75;;;7.30;95.80;;;;;;5035034;28;20448;-73
2023/01/06 08:38:32;;;;;;;18.65;4.05;;;7.40;95.60;;;;;;5051314;28;20048;-74
2023/01/06 08:40:58;;;;;;;13.77;2.55;;;7.40;95.60;;;;;;5051262;28;20489;-72
2023/01/06 08:43:25;;;;;;;17.80;3.75;;;7.40;95.70;;;;;;5034954;28;20420;-71
2023/01/06 08:45:51;;;;;;;22.13;3.28;;;7.50;95.70;;;;;;5050120;28;20207;-75
2023/01/06 08:48:18;;;;;;;13.02;2.92;;;7.60;95.80;;;;;;5051417;28;20041;-74
2023/01/06 08:50:44;;;;;;;14.75;2.85;;;7.60;95.60;;;;;;5050914;28;20053;-72
2023/01/06 08:53:11;;;;;;;10.25;3.10;;;7.60;95.70;;;;;;5051080;28;20477;-73
2023/01/06 08:55:40;;;;;;;13.98;2.58;;;7.60;95.80;;;;;;5034844;28;20405;-74
2023/01/06 08:58:07;;;;;;;13.57;3.00;;;7.60;95.80;;;;;;5049058;28;20041;-72
2023/01/06 09:00:34;;;;;;;9.80;2.03;;;7.70;95.80;;;;;;5050624;28;20608;-73
2023/01/06 09:03:00;;;;;;;15.73;3.40;;;7.70;95.60;;;;;;5049539;28;20048;-75
2023/01/06 09:05:26;;;;;;;8.98;1.92;;;7.70;95.70;;;;;;5034479;28;20049;-72
2023/01/06 09:07:53;;;;;;;12.95;3.00;;;7.70;95.80;;;;;;5034492;28;20036;-70
2023/01/06 09:10:19;;;;;;;12.52;2.70;;;7.70;95.70;;;;;;5050895;28;20049;-73
2023/01/06 09:12:46;;;;;;;18.05;2.40;;;7.80;95.70;;;;;;5034523;28;20119;-73
2023/01/06 09:15:12;;;;;;;16.30;6.25;;;7.80;95.70;;;;;;5051199;28;20386;-73
2023/01/06 09:17:39;;;;;;;15.13;3.72;;;7.80;95.70;;;;;;5050802;28;20037;-74
2023/01/06 09:20:05;;;;;;;15.05;3.45;;;7.90;95.70;;;;;;5033450;28;20047;-76
2023/01/06 09:22:31;;;;;;;10.50;2.90;;;8.00;95.80;;;;;;5050870;28;20044;-75
2023/01/06 09:24:57;;;;;;;12.90;2.97;;;8.00;95.70;;;;;;5036444;28;20115;-75
2023/01/06 09:27:23;;;;;;;10.73;1.90;;;8.00;95.90;;;;;;5054302;28;20460;-72
2023/01/06 09:29:49;;;;;;;15.90;2.78;;;8.00;95.90;;;;;;5037621;28;20048;-72
2023/01/06 09:32:15;;;;;;;15.25;2.20;;;8.00;95.90;;;;;;5037760;28;20040;-72
2023/01/06 09:34:40;;;;;;;14.82;3.85;;;8.10;95.90;;;;;;5037680;28;20124;-72
2023/01/06 09:37:06;;;;;;;14.32;2.42;;;8.10;96.00;;;;;;5036840;28;20041;-71
2023/01/06 09:39:32;;;;;;;13.32;2.80;;;8.10;95.90;;;;;;5054209;28;20076;-77
2023/01/06 09:42:16;;;;;;;14.25;2.63;;;8.20;95.90;;;;;;5054199;28;20045;-73
2023/01/06 09:45:16;;;;;;;8.60;2.17;;;8.20;95.80;;;;;;5054244;28;20099;-72
2023/01/06 09:47:54;;;;;;;11.88;1.75;;;8.20;95.70;;;;;;5053778;28;20524;-75
2023/01/06 09:50:38;;;;;;;11.00;1.88;;;8.30;95.60;;;;;;5070522;28;20057;-72
2023/01/06 09:53:21;;;;;;;7.70;1.90;;;8.30;95.30;;;;;;5040482;28;20041;-74
2023/01/06 09:55:56;;;;;;;8.35;1.65;;;8.40;95.30;;;;;;5050466;28;20041;-73
2023/01/06 09:58:47;;;;;;;12.77;3.58;;;8.50;94.90;;;;;;5033941;28;20485;-71
2023/01/06 10:01:15;;;;;;;12.75;2.45;;;8.50;95.00;;;;;;5017341;28;20038;-73
2023/01/06 10:03:44;;;;;;;11.93;2.83;;;8.50;95.00;;;;;;5050666;28;20433;-72
2023/01/06 10:06:48;;;;;;;10.60;2.25;;;8.60;94.90;;;;;;5050564;28;20049;-75
2023/01/06 10:09:29;;;;;;;10.60;2.55;;;8.60;95.00;;;;;;5067457;28;20053;-74
2023/01/06 10:12:15;;;;;;;11.15;2.67;;;8.80;94.80;;;;;;5053718;28;20063;-71
2023/01/06 10:15:24;;;;;;;10.70;2.85;;;8.90;94.70;;;;;;5053554;28;20041;-74
2023/01/06 10:18:25;;;;;;;6.75;1.98;;;9.00;94.40;;;;;;5044422;28;20040;-74
2023/01/06 10:21:06;;;;;;;10.00;2.20;;;9.00;94.40;;;;;;5005361;28;20099;-75
2023/01/06 10:23:49;;;;;;;13.68;3.53;;;9.00;94.20;;;;;;5029748;28;20033;-74
2023/01/06 10:26:29;;;;;;;7.57;1.73;;;9.10;94.20;;;;;;5042579;28;20041;-74
2023/01/06 10:29:01;;;;;;;8.43;2.33;;;9.10;93.80;;;;;;5060772;28;20315;-74
2023/01/06 10:31:33;;;;;;;6.88;2.03;;;9.30;93.80;;;;;;5070121;28;20485;-73
2023/01/06 10:34:01;;;;;;;9.50;2.72;;;9.30;93.80;;;;;;5053400;28;20480;-76
2023/01/06 10:36:32;;;;;;;8.02;2.10;;;9.30;93.40;;;;;;5052740;28;20493;-74
2023/01/06 10:38:59;;;;;;;7.15;1.70;;;9.30;93.50;;;;;;5068743;28;20037;-76
2023/01/06 10:41:40;;;;;;;9.15;2.15;;;9.40;93.20;;;;;;5053230;28;20057;-72
2023/01/06 10:44:09;;;;;;;10.60;2.60;;;9.50;93.00;;;;;;5053377;28;20048;-73
2023/01/06 10:46:37;;;;;;;10.25;2.30;;;9.50;92.50;;;;;;5053243;28;20401;-72
2023/01/06 10:49:07;;;;;;;10.38;2.13;;;9.50;92.50;;;;;;5052842;28;20052;-75
2023/01/06 10:51:43;;;;;;;9.25;1.88;;;9.50;91.80;;;;;;5052624;28;20061;-75
2023/01/06 10:54:13;;;;;;;8.48;2.58;;;9.60;92.10;;;;;;5052769;28;20041;-76
2023/01/06 10:56:45;;;;;;;13.52;3.05;;;9.60;92.30;;;;;;5051854;28;20041;-73
2023/01/06 10:59:12;;;;;;;14.55;3.35;;;9.60;92.10;;;;;;5052770;28;20041;-75
2023/01/06 11:01:53;;;;;;;11.13;2.35;;;9.70;91.40;;;;;;5052974;28;20393;-77
2023/01/06 11:04:20;;;;;;;12.88;2.15;;;9.70;91.10;;;;;;5036389;28;20095;-76
2023/01/06 11:06:58;;;;;;;9.65;2.13;;;9.70;91.30;;;;;;5052857;28;20409;-75
2023/01/06 11:09:40;;;;;;;8.30;2.30;;;9.80;91.60;;;;;;5052554;28;20362;-72
2023/01/06 11:12:22;;;;;;;54.83;24.92;;;9.90;91.00;;;;;;5052438;28;20041;-72
2023/01/06 11:15:06;;;;;;;11.02;2.90;;;9.90;91.00;;;;;;5051587;28;20041;-73
2023/01/06 11:17:32;;;;;;;11.02;2.10;;;10.00;90.60;;;;;;5019382;28;20067;-74
2023/01/06 11:20:29;;;;;;;11.40;2.17;;;10.00;90.40;;;;;;5052324;28;20041;-74
2023/01/06 11:23:19;;;;;;;9.80;2.28;;;10.10;89.90;;;;;;5040229;28;20049;-74
2023/01/06 11:26:00;;;;;;;8.73;1.83;;;10.10;89.90;;;;;;5052311;28;20049;-74
2023/01/06 11:28:26;;;;;;;11.98;3.13;;;10.10;89.80;;;;;;5052352;28;20052;-72
2023/01/06 11:30:58;;;;;;;12.73;2.65;;;10.10;89.10;;;;;;5050902;28;20036;-74
2023/01/06 11:33:27;;;;;;;9.60;2.75;;;10.10;88.80;;;;;;5035404;28;20512;-73
2023/01/06 11:35:55;;;;;;;14.90;2.70;;;10.10;89.20;;;;;;5052074;28;20072;-74
2023/01/06 11:38:21;;;;;;;14.27;3.28;;;10.10;89.00;;;;;;5035405;28;20045;-75
2023/01/06 11:40:49;;;;;;;11.32;2.42;;;10.10;88.90;;;;;;5051958;28;20508;-72
2023/01/06 11:43:22;;;;;;;17.35;2.83;;;10.10;88.90;;;;;;5051855;28;20040;-75
2023/01/06 11:45:59;;;;;;;8.93;2.55;;;10.10;89.10;;;;;;5051728;28;20507;-76
2023/01/06 11:48:48;;;;;;;11.00;2.65;;;10.20;89.20;;;;;;5050331;28;20115;-78
2023/01/06 11:51:14;;;;;;;8.30;3.50;;;10.30;88.70;;;;;;5051464;28;20088;-77
2023/01/06 11:53:56;;;;;;;15.30;3.17;;;10.30;88.50;;;;;;5051731;28;20060;-74
2023/01/06 11:56:22;;;;;;;8.85;2.70;;;10.30;87.90;;;;;;5051499;28;20041;-75
2023/01/06 11:59:11;;;;;;;8.57;2.78;;;10.30;87.70;;;;;;5052041;28;20039;-76
2023/01/06 12:01:46;;;;;;;14.43;2.78;;;10.30;87.60;;;;;;5035147;28;20044;-75
2023/01/06 12:04:34;;;;;;;10.45;2.22;;;10.30;87.60;;;;;;5048983;28;20133;-75
2023/01/06 12:07:14;;;;;;;14.85;3.15;;;10.20;87.80;;;;;;5031741;28;20049;-76
2023/01/06 12:09:44;;;;;;;12.73;2.00;;;10.30;88.00;;;;;;5031776;28;20107;-75
2023/01/06 12:12:14;;;;;;;14.85;2.92;;;10.30;88.20;;;;;;5031930;28;20436;-73
2023/01/06 12:14:40;;;;;;;13.93;3.38;;;10.30;87.50;;;;;;5031970;28;20037;-71
2023/01/06 12:17:28;;;;;;;12.70;2.53;;;10.20;87.30;;;;;;5031866;28;20504;-75
2023/01/06 12:20:20;;;;;;;16.60;3.72;;;10.10;87.40;;;;;;5035676;28;20037;-73
2023/01/06 12:23:00;;;;;;;14.50;3.00;;;10.00;87.70;;;;;;5050921;28;20092;-75
2023/01/06 12:25:38;;;;;;;12.00;2.58;;;10.00;88.10;;;;;;5034853;28;20045;-73
2023/01/06 12:28:22;;;;;;;18.67;3.72;;;9.90;88.20;;;;;;5051354;28;20125;-75
2023/01/06 12:30:56;;;;;;;17.63;6.88;;;9.90;88.40;;;;;;5051677;28;20033;-73
2023/01/06 12:33:43;;;;;;;15.90;4.83;;;9.90;88.50;;;;;;5051580;28;20037;-75
2023/01/06 12:36:36;;;;;;;12.65;3.95;;;9.90;88.60;;;;;;5050720;28;20275;-74
2023/01/06 12:39:47;;;;;;;16.55;4.25;;;9.80;88.20;;;;;;5031772;28;20389;-77
2023/01/06 12:42:34;;;;;;;22.23;4.57;;;9.80;88.50;;;;;;5032948;28;20072;-74
2023/01/06 12:45:23;;;;;;;93.03;42.85;;;9.70;88.40;;;;;;5051265;28;20040;-75
2023/01/06 12:47:53;;;;;;;12.20;3.70;;;9.70;89.00;;;;;;5051112;28;20049;-72
2023/01/06 12:50:21;;;;;;;11.45;3.40;;;9.70;89.00;;;;;;5050857;28;20056;-75
2023/01/06 12:52:54;;;;;;;19.23;4.55;;;9.80;89.30;;;;;;5051253;28;20420;-73
2023/01/06 12:55:42;;;;;;;11.57;2.92;;;9.70;89.00;;;;;;5049963;28;20120;-74
2023/01/06 12:58:38;;;;;;;15.93;4.72;;;9.60;89.50;;;;;;5052552;28;20499;-75
2023/01/06 13:01:13;;;;;;;20.15;4.40;;;9.60;89.50;;;;;;5055068;28;20485;-73
2023/01/06 13:04:04;;;;;;;20.77;7.63;;;9.50;89.50;;;;;;5047709;28;20068;-74
2023/01/06 13:07:04;;;;;;;17.25;4.07;;;9.50;89.50;;;;;;5034772;28;20041;-74
2023/01/06 13:09:54;;;;;;;15.13;4.68;;;9.30;89.80;;;;;;5018279;28;20049;-76
2023/01/06 13:12:47;;;;;;;20.08;5.68;;;9.40;89.90;;;;;;5035050;28;20041;-73
2023/01/06 13:15:31;;;;;;;13.68;4.43;;;9.30;90.10;;;;;;5034832;28;20124;-76